sensor_id;sensor_type;location;lat;lon;timestamp;temperature;humidity
18426;DHT22;9340;48.756;9.226;2023-02-18T00:01:10;12.70;99.90
18426;DHT22;9340;48.756;9.226;2023-02-18T00:03:37;12.80;99.90
18426;DHT22;9340;48.756;9.226;2023-02-18T00:06:12;12.80;99.90
18426;DHT22;9340;48.756;9.226;2023-02-18T00:08:40;12.80;99.90
18426;DHT22;9340;48.756;9.226;2023-02-18T00:11:09;12.70;99.90
18426;DHT22;9340;48.756;9.226;2023-02-18T00:13:36;12.70;99.90
18426;DHT22;9340;48.756;9.226;2023-02-18T00:16:05;12.70;99.90
18426;DHT22;9340;48.756;9.226;2023-02-18T00:18:32;12.60;99.90
18426;DHT22;9340;48.756;9.226;2023-02-18T00:20:59;12.60;99.90
18426;DHT22;9340;48.756;9.226;2023-02-18T00:23:26;12.70;99.90
18426;DHT22;9340;48.756;9.226;2023-02-18T00:25:58;12.60;99.90
18426;DHT22;9340;48.756;9.226;2023-02-18T00:28:27;12.60;99.90
18426;DHT22;9340;48.756;9.226;2023-02-18T00:30:54;12.60;99.90
18426;DHT22;9340;48.756;9.226;2023-02-18T00:33:20;12.60;99.90
18426;DHT22;9340;48.756;9.226;2023-02-18T00:35:47;12.60;99.90
18426;DHT22;9340;48.756;9.226;2023-02-18T00:38:14;12.60;99.90
18426;DHT22;9340;48.756;9.226;2023-02-18T00:40:41;12.70;99.90
18426;DHT22;9340;48.756;9.226;2023-02-18T00:43:08;12.70;99.90
18426;DHT22;9340;48.756;9.226;2023-02-18T00:45:36;12.70;99.90
18426;DHT22;9340;48.756;9.226;2023-02-18T00:48:03;12.70;99.90
18426;DHT22;9340;48.756;9.226;2023-02-18T00:50:30;12.70;99.90
18426;DHT22;9340;48.756;9.226;2023-02-18T00:52:56;12.70;99.90
18426;DHT22;9340;48.756;9.226;2023-02-18T00:55:23;12.70;99.90
18426;DHT22;9340;48.756;9.226;2023-02-18T00:57:50;12.70;99.90
18426;DHT22;9340;48.756;9.226;2023-02-18T01:00:17;12.70;99.90
18426;DHT22;9340;48.756;9.226;2023-02-18T01:02:45;12.60;99.90
18426;DHT22;9340;48.756;9.226;2023-02-18T01:05:11;12.70;99.90
18426;DHT22;9340;48.756;9.226;2023-02-18T01:07:38;12.60;99.90
18426;DHT22;9340;48.756;9.226;2023-02-18T01:10:06;12.60;99.90
18426;DHT22;9340;48.756;9.226;2023-02-18T01:12:33;12.60;99.90
18426;DHT22;9340;48.756;9.226;2023-02-18T01:14:59;12.50;99.90
18426;DHT22;9340;48.756;9.226;2023-02-18T01:17:26;12.60;99.90
18426;DHT22;9340;48.756;9.226;2023-02-18T01:19:54;12.70;99.90
18426;DHT22;9340;48.756;9.226;2023-02-18T01:22:21;12.60;99.90
18426;DHT22;9340;48.756;9.226;2023-02-18T01:24:47;12.60;99.90
18426;DHT22;9340;48.756;9.226;2023-02-18T01:27:14;12.60;99.90
18426;DHT22;9340;48.756;9.226;2023-02-18T01:29:41;12.60;99.90
18426;DHT22;9340;48.756;9.226;2023-02-18T01:32:08;12.60;99.90
18426;DHT22;9340;48.756;9.226;2023-02-18T01:34:34;12.60;99.90
18426;DHT22;9340;48.756;9.226;2023-02-18T01:37:02;12.60;99.90
18426;DHT22;9340;48.756;9.226;2023-02-18T01:39:29;12.50;99.90
18426;DHT22;9340;48.756;9.226;2023-02-18T01:41:55;12.50;99.90
18426;DHT22;9340;48.756;9.226;2023-02-18T01:44:24;12.50;99.90
18426;DHT22;9340;48.756;9.226;2023-02-18T01:46:51;12.50;99.90
18426;DHT22;9340;48.756;9.226;2023-02-18T01:49:22;12.50;99.90
18426;DHT22;9340;48.756;9.226;2023-02-18T01:51:52;12.50;99.90
18426;DHT22;9340;48.756;9.226;2023-02-18T01:54:24;12.50;99.90
18426;DHT22;9340;48.756;9.226;2023-02-18T01:56:55;12.30;99.90
18426;DHT22;9340;48.756;9.226;2023-02-18T01:59:25;12.20;99.90
18426;DHT22;9340;48.756;9.226;2023-02-18T02:01:52;12.20;99.90
18426;DHT22;9340;48.756;9.226;2023-02-18T02:04:19;12.20;99.90
18426;DHT22;9340;48.756;9.226;2023-02-18T02:06:46;12.20;99.90
18426;DHT22;9340;48.756;9.226;2023-02-18T02:09:15;12.10;99.90
18426;DHT22;9340;48.756;9.226;2023-02-18T02:12:01;12.10;99.90
18426;DHT22;9340;48.756;9.226;2023-02-18T02:14:41;12.10;99.90
18426;DHT22;9340;48.756;9.226;2023-02-18T02:17:19;12.20;99.90
18426;DHT22;9340;48.756;9.226;2023-02-18T02:20:07;12.20;99.90
18426;DHT22;9340;48.756;9.226;2023-02-18T02:22:59;12.20;99.90
18426;DHT22;9340;48.756;9.226;2023-02-18T02:25:51;12.20;99.90
18426;DHT22;9340;48.756;9.226;2023-02-18T02:31:52;12.10;99.90
18426;DHT22;9340;48.756;9.226;2023-02-18T02:34:48;12.20;99.90
18426;DHT22;9340;48.756;9.226;2023-02-18T02:37:23;12.20;99.90
18426;DHT22;9340;48.756;9.226;2023-02-18T02:40:00;12.20;99.90
18426;DHT22;9340;48.756;9.226;2023-02-18T02:42:39;12.20;99.90
18426;DHT22;9340;48.756;9.226;2023-02-18T02:45:17;12.20;99.90
18426;DHT22;9340;48.756;9.226;2023-02-18T02:47:51;12.20;99.90
18426;DHT22;9340;48.756;9.226;2023-02-18T02:50:26;12.20;99.90
18426;DHT22;9340;48.756;9.226;2023-02-18T02:52:58;12.30;99.90
18426;DHT22;9340;48.756;9.226;2023-02-18T02:55:26;12.20;99.90
18426;DHT22;9340;48.756;9.226;2023-02-18T02:57:54;12.20;99.90
18426;DHT22;9340;48.756;9.226;2023-02-18T03:00:28;12.20;99.90
18426;DHT22;9340;48.756;9.226;2023-02-18T03:06:11;12.30;99.90
18426;DHT22;9340;48.756;9.226;2023-02-18T03:08:48;12.40;99.90
18426;DHT22;9340;48.756;9.226;2023-02-18T03:11:21;12.40;99.90
18426;DHT22;9340;48.756;9.226;2023-02-18T03:13:56;12.30;99.90
18426;DHT22;9340;48.756;9.226;2023-02-18T03:16:33;12.30;99.90
18426;DHT22;9340;48.756;9.226;2023-02-18T03:19:07;12.30;99.90
18426;DHT22;9340;48.756;9.226;2023-02-18T03:21:40;12.30;99.90
18426;DHT22;9340;48.756;9.226;2023-02-18T03:24:13;12.30;99.90
18426;DHT22;9340;48.756;9.226;2023-02-18T03:26:45;12.30;99.90
18426;DHT22;9340;48.756;9.226;2023-02-18T03:29:13;12.20;99.90
18426;DHT22;9340;48.756;9.226;2023-02-18T03:31:42;12.30;99.90
18426;DHT22;9340;48.756;9.226;2023-02-18T03:34:14;12.20;99.90
18426;DHT22;9340;48.756;9.226;2023-02-18T03:36:44;12.10;99.90
18426;DHT22;9340;48.756;9.226;2023-02-18T03:39:14;12.00;99.90
18426;DHT22;9340;48.756;9.226;2023-02-18T03:41:41;12.00;99.90
18426;DHT22;9340;48.756;9.226;2023-02-18T03:44:09;11.90;99.90
18426;DHT22;9340;48.756;9.226;2023-02-18T03:46:37;11.70;99.90
18426;DHT22;9340;48.756;9.226;2023-02-18T03:49:05;11.70;99.90
18426;DHT22;9340;48.756;9.226;2023-02-18T03:51:32;11.60;99.90
18426;DHT22;9340;48.756;9.226;2023-02-18T03:54:00;11.40;99.90
18426;DHT22;9340;48.756;9.226;2023-02-18T03:56:27;11.30;99.90
18426;DHT22;9340;48.756;9.226;2023-02-18T03:58:54;11.20;99.90
18426;DHT22;9340;48.756;9.226;2023-02-18T04:01:20;11.00;99.90
18426;DHT22;9340;48.756;9.226;2023-02-18T04:03:47;10.80;99.90
18426;DHT22;9340;48.756;9.226;2023-02-18T04:06:14;10.60;99.90
18426;DHT22;9340;48.756;9.226;2023-02-18T04:08:40;10.40;99.90
18426;DHT22;9340;48.756;9.226;2023-02-18T04:11:08;10.40;99.90
18426;DHT22;9340;48.756;9.226;2023-02-18T04:13:35;10.40;99.90
18426;DHT22;9340;48.756;9.226;2023-02-18T04:16:02;10.50;99.90
18426;DHT22;9340;48.756;9.226;2023-02-18T04:18:29;10.60;99.90
18426;DHT22;9340;48.756;9.226;2023-02-18T04:20:56;10.60;99.90
18426;DHT22;9340;48.756;9.226;2023-02-18T04:23:22;10.70;99.90
18426;DHT22;9340;48.756;9.226;2023-02-18T04:25:49;10.70;99.90
18426;DHT22;9340;48.756;9.226;2023-02-18T04:28:17;10.80;99.90
18426;DHT22;9340;48.756;9.226;2023-02-18T04:30:45;10.80;99.90
18426;DHT22;9340;48.756;9.226;2023-02-18T04:33:12;10.70;99.90
18426;DHT22;9340;48.756;9.226;2023-02-18T04:35:39;10.70;99.90
18426;DHT22;9340;48.756;9.226;2023-02-18T04:38:06;10.60;99.90
18426;DHT22;9340;48.756;9.226;2023-02-18T04:40:33;10.40;99.90
18426;DHT22;9340;48.756;9.226;2023-02-18T04:43:00;10.30;99.90
18426;DHT22;9340;48.756;9.226;2023-02-18T04:45:28;10.10;99.90
18426;DHT22;9340;48.756;9.226;2023-02-18T04:47:55;10.00;99.90
18426;DHT22;9340;48.756;9.226;2023-02-18T04:50:22;10.00;99.90
18426;DHT22;9340;48.756;9.226;2023-02-18T04:52:49;9.90;99.90
18426;DHT22;9340;48.756;9.226;2023-02-18T04:55:16;9.80;99.90
18426;DHT22;9340;48.756;9.226;2023-02-18T04:57:43;9.80;99.90
18426;DHT22;9340;48.756;9.226;2023-02-18T05:00:13;9.80;99.90
18426;DHT22;9340;48.756;9.226;2023-02-18T05:02:41;9.70;99.90
18426;DHT22;9340;48.756;9.226;2023-02-18T05:05:08;9.70;99.90
18426;DHT22;9340;48.756;9.226;2023-02-18T05:07:35;9.70;99.90
18426;DHT22;9340;48.756;9.226;2023-02-18T05:10:03;9.70;99.90
18426;DHT22;9340;48.756;9.226;2023-02-18T05:12:30;9.60;99.90
18426;DHT22;9340;48.756;9.226;2023-02-18T05:14:57;9.70;99.90
18426;DHT22;9340;48.756;9.226;2023-02-18T05:17:23;9.70;99.90
18426;DHT22;9340;48.756;9.226;2023-02-18T05:19:51;9.70;99.90
18426;DHT22;9340;48.756;9.226;2023-02-18T05:22:18;9.60;99.90
18426;DHT22;9340;48.756;9.226;2023-02-18T05:24:45;9.50;99.90
18426;DHT22;9340;48.756;9.226;2023-02-18T05:27:11;9.50;99.90
18426;DHT22;9340;48.756;9.226;2023-02-18T05:29:38;9.60;99.90
18426;DHT22;9340;48.756;9.226;2023-02-18T05:32:05;9.50;99.90
18426;DHT22;9340;48.756;9.226;2023-02-18T05:34:31;9.50;99.90
18426;DHT22;9340;48.756;9.226;2023-02-18T05:36:59;9.40;99.90
18426;DHT22;9340;48.756;9.226;2023-02-18T05:39:26;9.40;99.90
18426;DHT22;9340;48.756;9.226;2023-02-18T05:41:53;9.40;99.90
18426;DHT22;9340;48.756;9.226;2023-02-18T05:44:19;9.30;99.90
18426;DHT22;9340;48.756;9.226;2023-02-18T05:46:59;9.30;99.90
18426;DHT22;9340;48.756;9.226;2023-02-18T05:49:26;9.20;99.90
18426;DHT22;9340;48.756;9.226;2023-02-18T05:51:54;9.30;99.90
18426;DHT22;9340;48.756;9.226;2023-02-18T05:54:22;9.30;99.90
18426;DHT22;9340;48.756;9.226;2023-02-18T05:56:49;9.40;99.90
18426;DHT22;9340;48.756;9.226;2023-02-18T05:59:16;9.40;99.90
18426;DHT22;9340;48.756;9.226;2023-02-18T06:01:43;9.50;99.90
18426;DHT22;9340;48.756;9.226;2023-02-18T06:04:11;9.60;99.90
18426;DHT22;9340;48.756;9.226;2023-02-18T06:06:38;9.60;99.90
18426;DHT22;9340;48.756;9.226;2023-02-18T06:09:05;9.60;99.90
18426;DHT22;9340;48.756;9.226;2023-02-18T06:11:33;9.60;99.90
18426;DHT22;9340;48.756;9.226;2023-02-18T06:14:00;9.60;99.90
18426;DHT22;9340;48.756;9.226;2023-02-18T06:16:27;9.60;99.90
18426;DHT22;9340;48.756;9.226;2023-02-18T06:18:54;9.60;99.90
18426;DHT22;9340;48.756;9.226;2023-02-18T06:21:21;9.50;99.90
18426;DHT22;9340;48.756;9.226;2023-02-18T06:23:47;9.50;99.90
18426;DHT22;9340;48.756;9.226;2023-02-18T06:26:14;9.30;99.90
18426;DHT22;9340;48.756;9.226;2023-02-18T06:28:42;9.30;99.90
18426;DHT22;9340;48.756;9.226;2023-02-18T06:31:09;9.30;99.90
18426;DHT22;9340;48.756;9.226;2023-02-18T06:33:36;9.30;99.90
18426;DHT22;9340;48.756;9.226;2023-02-18T06:36:05;9.30;99.90
18426;DHT22;9340;48.756;9.226;2023-02-18T06:38:32;9.30;99.90
18426;DHT22;9340;48.756;9.226;2023-02-18T06:40:59;9.30;99.90
18426;DHT22;9340;48.756;9.226;2023-02-18T06:43:25;9.50;99.90
18426;DHT22;9340;48.756;9.226;2023-02-18T06:45:53;9.60;99.90
18426;DHT22;9340;48.756;9.226;2023-02-18T06:48:20;9.70;99.90
18426;DHT22;9340;48.756;9.226;2023-02-18T06:50:47;9.80;99.90
18426;DHT22;9340;48.756;9.226;2023-02-18T06:53:14;9.90;99.90
18426;DHT22;9340;48.756;9.226;2023-02-18T06:55:41;9.90;99.90
18426;DHT22;9340;48.756;9.226;2023-02-18T06:58:09;10.00;99.90
18426;DHT22;9340;48.756;9.226;2023-02-18T07:00:36;10.00;99.90
18426;DHT22;9340;48.756;9.226;2023-02-18T07:03:04;10.20;99.90
18426;DHT22;9340;48.756;9.226;2023-02-18T07:05:31;10.20;99.90
18426;DHT22;9340;48.756;9.226;2023-02-18T07:07:58;10.20;99.90
18426;DHT22;9340;48.756;9.226;2023-02-18T07:10:25;10.30;99.90
18426;DHT22;9340;48.756;9.226;2023-02-18T07:12:51;10.30;99.90
18426;DHT22;9340;48.756;9.226;2023-02-18T07:15:18;10.40;99.90
18426;DHT22;9340;48.756;9.226;2023-02-18T07:17:48;10.50;99.90
18426;DHT22;9340;48.756;9.226;2023-02-18T07:20:17;10.50;99.90
18426;DHT22;9340;48.756;9.226;2023-02-18T07:22:44;10.50;99.90
18426;DHT22;9340;48.756;9.226;2023-02-18T07:25:11;10.60;99.90
18426;DHT22;9340;48.756;9.226;2023-02-18T07:27:38;10.60;99.90
18426;DHT22;9340;48.756;9.226;2023-02-18T07:30:06;10.70;99.90
18426;DHT22;9340;48.756;9.226;2023-02-18T07:32:32;10.80;99.90
18426;DHT22;9340;48.756;9.226;2023-02-18T07:34:59;10.90;99.90
18426;DHT22;9340;48.756;9.226;2023-02-18T07:37:27;11.00;99.90
18426;DHT22;9340;48.756;9.226;2023-02-18T07:39:54;11.00;99.90
18426;DHT22;9340;48.756;9.226;2023-02-18T07:42:21;11.10;99.90
18426;DHT22;9340;48.756;9.226;2023-02-18T07:44:47;11.20;99.90
18426;DHT22;9340;48.756;9.226;2023-02-18T07:47:15;11.30;99.90
18426;DHT22;9340;48.756;9.226;2023-02-18T07:49:44;11.60;99.90
18426;DHT22;9340;48.756;9.226;2023-02-18T07:52:11;11.70;99.90
18426;DHT22;9340;48.756;9.226;2023-02-18T07:54:39;11.90;99.90
18426;DHT22;9340;48.756;9.226;2023-02-18T07:57:05;12.00;99.90
18426;DHT22;9340;48.756;9.226;2023-02-18T07:59:32;12.10;99.90
18426;DHT22;9340;48.756;9.226;2023-02-18T08:01:59;12.30;99.90
18426;DHT22;9340;48.756;9.226;2023-02-18T08:04:26;12.50;99.90
18426;DHT22;9340;48.756;9.226;2023-02-18T08:06:52;12.70;99.90
18426;DHT22;9340;48.756;9.226;2023-02-18T08:09:19;12.80;99.90
18426;DHT22;9340;48.756;9.226;2023-02-18T08:11:47;12.90;99.90
18426;DHT22;9340;48.756;9.226;2023-02-18T08:14:14;13.00;99.90
18426;DHT22;9340;48.756;9.226;2023-02-18T08:16:40;12.90;99.90
18426;DHT22;9340;48.756;9.226;2023-02-18T08:19:07;12.90;99.90
18426;DHT22;9340;48.756;9.226;2023-02-18T08:21:34;13.00;99.90
18426;DHT22;9340;48.756;9.226;2023-02-18T08:24:00;13.00;99.90
18426;DHT22;9340;48.756;9.226;2023-02-18T08:26:28;13.10;99.90
18426;DHT22;9340;48.756;9.226;2023-02-18T08:28:56;13.30;99.90
18426;DHT22;9340;48.756;9.226;2023-02-18T08:31:24;13.40;99.90
18426;DHT22;9340;48.756;9.226;2023-02-18T08:33:51;13.50;99.90
18426;DHT22;9340;48.756;9.226;2023-02-18T08:36:18;13.60;99.90
18426;DHT22;9340;48.756;9.226;2023-02-18T08:38:45;13.70;99.90
18426;DHT22;9340;48.756;9.226;2023-02-18T08:41:12;13.80;99.90
18426;DHT22;9340;48.756;9.226;2023-02-18T08:43:40;13.90;99.90
18426;DHT22;9340;48.756;9.226;2023-02-18T08:46:08;14.00;99.90
18426;DHT22;9340;48.756;9.226;2023-02-18T08:48:35;14.00;99.90
18426;DHT22;9340;48.756;9.226;2023-02-18T08:51:10;14.10;99.90
18426;DHT22;9340;48.756;9.226;2023-02-18T08:53:37;14.10;99.90
18426;DHT22;9340;48.756;9.226;2023-02-18T08:56:05;14.20;99.90
18426;DHT22;9340;48.756;9.226;2023-02-18T08:58:32;14.30;99.90
18426;DHT22;9340;48.756;9.226;2023-02-18T09:01:02;14.40;99.90
18426;DHT22;9340;48.756;9.226;2023-02-18T09:03:31;14.50;99.90
18426;DHT22;9340;48.756;9.226;2023-02-18T09:05:59;14.60;99.90
18426;DHT22;9340;48.756;9.226;2023-02-18T09:08:26;14.70;99.90
18426;DHT22;9340;48.756;9.226;2023-02-18T09:10:54;14.80;99.90
18426;DHT22;9340;48.756;9.226;2023-02-18T09:13:22;14.90;99.90
18426;DHT22;9340;48.756;9.226;2023-02-18T09:15:56;15.00;99.90
18426;DHT22;9340;48.756;9.226;2023-02-18T09:18:23;15.00;99.90
18426;DHT22;9340;48.756;9.226;2023-02-18T09:20:54;15.10;99.90
18426;DHT22;9340;48.756;9.226;2023-02-18T09:23:21;15.10;99.90
18426;DHT22;9340;48.756;9.226;2023-02-18T09:25:47;15.10;99.90
18426;DHT22;9340;48.756;9.226;2023-02-18T09:28:14;15.10;99.90
18426;DHT22;9340;48.756;9.226;2023-02-18T09:30:41;15.10;99.90
18426;DHT22;9340;48.756;9.226;2023-02-18T09:33:07;15.20;99.90
18426;DHT22;9340;48.756;9.226;2023-02-18T09:35:38;15.30;99.90
18426;DHT22;9340;48.756;9.226;2023-02-18T09:38:06;15.40;99.90
18426;DHT22;9340;48.756;9.226;2023-02-18T09:40:34;15.50;99.90
18426;DHT22;9340;48.756;9.226;2023-02-18T09:43:03;15.50;99.90
18426;DHT22;9340;48.756;9.226;2023-02-18T09:45:30;15.50;99.90
18426;DHT22;9340;48.756;9.226;2023-02-18T09:47:57;15.40;99.90
18426;DHT22;9340;48.756;9.226;2023-02-18T09:50:28;15.50;99.90
18426;DHT22;9340;48.756;9.226;2023-02-18T09:52:58;15.50;99.90
18426;DHT22;9340;48.756;9.226;2023-02-18T09:55:28;15.50;99.90
18426;DHT22;9340;48.756;9.226;2023-02-18T09:57:57;15.60;99.90
18426;DHT22;9340;48.756;9.226;2023-02-18T10:00:28;15.60;99.90
18426;DHT22;9340;48.756;9.226;2023-02-18T10:02:57;15.50;99.90
18426;DHT22;9340;48.756;9.226;2023-02-18T10:05:27;15.50;99.90
18426;DHT22;9340;48.756;9.226;2023-02-18T10:07:59;15.50;99.90
18426;DHT22;9340;48.756;9.226;2023-02-18T10:10:34;15.40;99.90
18426;DHT22;9340;48.756;9.226;2023-02-18T10:13:02;15.40;99.90
18426;DHT22;9340;48.756;9.226;2023-02-18T10:15:30;15.50;99.90
18426;DHT22;9340;48.756;9.226;2023-02-18T10:17:58;15.60;99.90
18426;DHT22;9340;48.756;9.226;2023-02-18T10:20:28;15.60;99.90
18426;DHT22;9340;48.756;9.226;2023-02-18T10:22:58;15.60;99.90
18426;DHT22;9340;48.756;9.226;2023-02-18T10:25:25;15.40;99.90
18426;DHT22;9340;48.756;9.226;2023-02-18T10:27:56;15.40;99.90
18426;DHT22;9340;48.756;9.226;2023-02-18T10:30:28;15.60;99.90
18426;DHT22;9340;48.756;9.226;2023-02-18T10:33:00;15.80;99.90
18426;DHT22;9340;48.756;9.226;2023-02-18T10:35:39;16.00;99.90
18426;DHT22;9340;48.756;9.226;2023-02-18T10:38:16;16.10;99.90
18426;DHT22;9340;48.756;9.226;2023-02-18T10:40:53;16.00;99.90
18426;DHT22;9340;48.756;9.226;2023-02-18T10:43:28;16.00;99.90
18426;DHT22;9340;48.756;9.226;2023-02-18T10:46:04;16.00;99.90
18426;DHT22;9340;48.756;9.226;2023-02-18T10:48:45;16.00;99.90
18426;DHT22;9340;48.756;9.226;2023-02-18T10:51:19;15.90;99.90
18426;DHT22;9340;48.756;9.226;2023-02-18T10:53:49;15.80;99.90
18426;DHT22;9340;48.756;9.226;2023-02-18T10:56:34;15.80;99.90
18426;DHT22;9340;48.756;9.226;2023-02-18T10:59:10;15.90;99.90
18426;DHT22;9340;48.756;9.226;2023-02-18T11:01:37;15.80;99.90
18426;DHT22;9340;48.756;9.226;2023-02-18T11:04:10;15.80;99.90
18426;DHT22;9340;48.756;9.226;2023-02-18T11:06:39;15.90;99.90
18426;DHT22;9340;48.756;9.226;2023-02-18T11:09:10;15.90;99.90
18426;DHT22;9340;48.756;9.226;2023-02-18T11:11:48;15.80;99.90
18426;DHT22;9340;48.756;9.226;2023-02-18T11:14:36;15.80;99.90
18426;DHT22;9340;48.756;9.226;2023-02-18T11:17:09;15.80;99.90
18426;DHT22;9340;48.756;9.226;2023-02-18T11:19:40;15.90;99.90
18426;DHT22;9340;48.756;9.226;2023-02-18T11:22:14;15.90;99.90
18426;DHT22;9340;48.756;9.226;2023-02-18T11:24:41;15.80;99.90
18426;DHT22;9340;48.756;9.226;2023-02-18T11:27:17;15.80;99.90
18426;DHT22;9340;48.756;9.226;2023-02-18T11:29:48;15.70;99.90
18426;DHT22;9340;48.756;9.226;2023-02-18T11:32:16;15.70;99.90
18426;DHT22;9340;48.756;9.226;2023-02-18T11:34:43;15.70;99.90
18426;DHT22;9340;48.756;9.226;2023-02-18T11:37:12;15.80;99.90
18426;DHT22;9340;48.756;9.226;2023-02-18T11:39:44;15.80;99.90
18426;DHT22;9340;48.756;9.226;2023-02-18T11:42:13;15.90;99.90
18426;DHT22;9340;48.756;9.226;2023-02-18T11:44:46;15.90;99.90
18426;DHT22;9340;48.756;9.226;2023-02-18T11:47:24;15.80;99.90
18426;DHT22;9340;48.756;9.226;2023-02-18T11:50:15;15.90;99.90
18426;DHT22;9340;48.756;9.226;2023-02-18T11:52:44;15.90;99.90
18426;DHT22;9340;48.756;9.226;2023-02-18T11:55:16;16.00;99.90
18426;DHT22;9340;48.756;9.226;2023-02-18T11:57:45;16.10;99.90
18426;DHT22;9340;48.756;9.226;2023-02-18T12:00:19;16.00;99.90
18426;DHT22;9340;48.756;9.226;2023-02-18T12:02:49;16.10;99.90
18426;DHT22;9340;48.756;9.226;2023-02-18T12:05:20;16.20;99.90
18426;DHT22;9340;48.756;9.226;2023-02-18T12:07:49;16.10;99.90
18426;DHT22;9340;48.756;9.226;2023-02-18T12:10:24;16.00;99.90
18426;DHT22;9340;48.756;9.226;2023-02-18T12:12:56;16.10;99.90
18426;DHT22;9340;48.756;9.226;2023-02-18T12:15:35;16.10;99.90
18426;DHT22;9340;48.756;9.226;2023-02-18T12:18:22;16.10;99.90
18426;DHT22;9340;48.756;9.226;2023-02-18T12:21:05;16.00;99.90
18426;DHT22;9340;48.756;9.226;2023-02-18T12:23:41;16.00;99.90
18426;DHT22;9340;48.756;9.226;2023-02-18T12:26:20;16.10;99.90
18426;DHT22;9340;48.756;9.226;2023-02-18T12:29:04;16.10;99.90
18426;DHT22;9340;48.756;9.226;2023-02-18T12:31:46;16.20;99.90
18426;DHT22;9340;48.756;9.226;2023-02-18T12:34:26;16.20;99.90
18426;DHT22;9340;48.756;9.226;2023-02-18T12:37:04;16.20;99.90
18426;DHT22;9340;48.756;9.226;2023-02-18T12:39:48;16.20;99.90
18426;DHT22;9340;48.756;9.226;2023-02-18T12:42:34;16.00;99.90
18426;DHT22;9340;48.756;9.226;2023-02-18T12:45:28;15.90;99.90
18426;DHT22;9340;48.756;9.226;2023-02-18T12:48:15;16.00;99.90
18426;DHT22;9340;48.756;9.226;2023-02-18T12:50:54;16.10;99.90
18426;DHT22;9340;48.756;9.226;2023-02-18T12:53:48;16.10;99.90
18426;DHT22;9340;48.756;9.226;2023-02-18T13:00:03;16.20;99.90
18426;DHT22;9340;48.756;9.226;2023-02-18T13:02:53;16.10;99.90
18426;DHT22;9340;48.756;9.226;2023-02-18T13:05:30;16.10;99.90
18426;DHT22;9340;48.756;9.226;2023-02-18T13:08:13;16.10;99.90
18426;DHT22;9340;48.756;9.226;2023-02-18T13:11:00;16.00;99.90
18426;DHT22;9340;48.756;9.226;2023-02-18T13:13:31;16.10;99.90
18426;DHT22;9340;48.756;9.226;2023-02-18T13:16:02;16.20;99.90
18426;DHT22;9340;48.756;9.226;2023-02-18T13:18:31;16.20;99.90
18426;DHT22;9340;48.756;9.226;2023-02-18T13:21:02;16.10;99.90
18426;DHT22;9340;48.756;9.226;2023-02-18T13:23:33;16.10;99.90
18426;DHT22;9340;48.756;9.226;2023-02-18T13:26:03;16.00;99.90
18426;DHT22;9340;48.756;9.226;2023-02-18T13:28:35;15.80;99.90
18426;DHT22;9340;48.756;9.226;2023-02-18T13:31:20;15.80;99.90
18426;DHT22;9340;48.756;9.226;2023-02-18T13:33:53;15.70;99.90
18426;DHT22;9340;48.756;9.226;2023-02-18T13:36:33;15.70;99.90
18426;DHT22;9340;48.756;9.226;2023-02-18T13:39:06;15.80;99.90
18426;DHT22;9340;48.756;9.226;2023-02-18T13:41:38;15.60;99.90
18426;DHT22;9340;48.756;9.226;2023-02-18T13:44:09;15.50;99.90
18426;DHT22;9340;48.756;9.226;2023-02-18T13:46:58;15.40;99.90
18426;DHT22;9340;48.756;9.226;2023-02-18T13:49:26;15.50;99.90
18426;DHT22;9340;48.756;9.226;2023-02-18T13:51:58;15.50;99.90
18426;DHT22;9340;48.756;9.226;2023-02-18T13:54:28;15.60;99.90
18426;DHT22;9340;48.756;9.226;2023-02-18T13:57:00;15.60;99.90
18426;DHT22;9340;48.756;9.226;2023-02-18T13:59:31;15.60;99.90
18426;DHT22;9340;48.756;9.226;2023-02-18T14:02:31;15.70;99.90
18426;DHT22;9340;48.756;9.226;2023-02-18T14:05:16;15.60;99.90
18426;DHT22;9340;48.756;9.226;2023-02-18T14:07:51;15.50;99.90
18426;DHT22;9340;48.756;9.226;2023-02-18T14:10:34;15.50;99.90
18426;DHT22;9340;48.756;9.226;2023-02-18T14:13:19;15.50;99.90
18426;DHT22;9340;48.756;9.226;2023-02-18T14:15:55;15.40;99.90
18426;DHT22;9340;48.756;9.226;2023-02-18T14:18:32;15.40;99.90
18426;DHT22;9340;48.756;9.226;2023-02-18T14:21:17;15.40;99.90
18426;DHT22;9340;48.756;9.226;2023-02-18T14:23:55;15.40;99.90
18426;DHT22;9340;48.756;9.226;2023-02-18T14:26:28;15.40;99.90
18426;DHT22;9340;48.756;9.226;2023-02-18T14:28:59;15.40;99.90
18426;DHT22;9340;48.756;9.226;2023-02-18T14:31:32;15.40;99.90
18426;DHT22;9340;48.756;9.226;2023-02-18T14:34:23;15.40;99.90
18426;DHT22;9340;48.756;9.226;2023-02-18T14:36:59;15.50;99.90
18426;DHT22;9340;48.756;9.226;2023-02-18T14:39:38;15.50;99.90
18426;DHT22;9340;48.756;9.226;2023-02-18T14:42:19;15.50;99.90
18426;DHT22;9340;48.756;9.226;2023-02-18T14:45:00;15.40;99.90
18426;DHT22;9340;48.756;9.226;2023-02-18T14:47:38;15.50;99.90
18426;DHT22;9340;48.756;9.226;2023-02-18T14:50:12;15.60;99.90
18426;DHT22;9340;48.756;9.226;2023-02-18T14:52:42;15.60;99.90
18426;DHT22;9340;48.756;9.226;2023-02-18T14:55:16;15.70;99.90
18426;DHT22;9340;48.756;9.226;2023-02-18T14:57:47;15.80;99.90
18426;DHT22;9340;48.756;9.226;2023-02-18T15:00:17;15.90;99.90
18426;DHT22;9340;48.756;9.226;2023-02-18T15:02:47;16.00;99.90
18426;DHT22;9340;48.756;9.226;2023-02-18T15:05:17;15.90;99.90
18426;DHT22;9340;48.756;9.226;2023-02-18T15:07:55;15.80;99.90
18426;DHT22;9340;48.756;9.226;2023-02-18T15:10:33;15.80;99.90
18426;DHT22;9340;48.756;9.226;2023-02-18T15:13:01;15.70;99.90
18426;DHT22;9340;48.756;9.226;2023-02-18T15:15:28;15.70;99.90
18426;DHT22;9340;48.756;9.226;2023-02-18T15:17:55;15.70;99.90
18426;DHT22;9340;48.756;9.226;2023-02-18T15:20:23;15.70;99.90
18426;DHT22;9340;48.756;9.226;2023-02-18T15:22:49;15.70;99.90
18426;DHT22;9340;48.756;9.226;2023-02-18T15:25:16;15.60;99.90
18426;DHT22;9340;48.756;9.226;2023-02-18T15:27:43;15.60;99.90
18426;DHT22;9340;48.756;9.226;2023-02-18T15:30:18;15.60;99.90
18426;DHT22;9340;48.756;9.226;2023-02-18T15:32:50;15.50;99.90
18426;DHT22;9340;48.756;9.226;2023-02-18T15:35:18;15.40;99.90
18426;DHT22;9340;48.756;9.226;2023-02-18T15:37:52;15.40;99.90
18426;DHT22;9340;48.756;9.226;2023-02-18T15:40:20;15.30;99.90
18426;DHT22;9340;48.756;9.226;2023-02-18T15:42:49;15.30;99.90
18426;DHT22;9340;48.756;9.226;2023-02-18T15:45:19;15.20;99.90
18426;DHT22;9340;48.756;9.226;2023-02-18T15:47:50;15.20;99.90
18426;DHT22;9340;48.756;9.226;2023-02-18T15:50:20;15.20;99.90
18426;DHT22;9340;48.756;9.226;2023-02-18T15:52:49;15.20;99.90
18426;DHT22;9340;48.756;9.226;2023-02-18T15:55:23;15.20;99.90
18426;DHT22;9340;48.756;9.226;2023-02-18T15:57:50;15.20;99.90
18426;DHT22;9340;48.756;9.226;2023-02-18T16:00:20;15.10;99.90
18426;DHT22;9340;48.756;9.226;2023-02-18T16:02:55;15.10;99.90
18426;DHT22;9340;48.756;9.226;2023-02-18T16:05:25;15.00;99.90
18426;DHT22;9340;48.756;9.226;2023-02-18T16:07:57;15.00;99.90
18426;DHT22;9340;48.756;9.226;2023-02-18T16:10:38;15.00;99.90
18426;DHT22;9340;48.756;9.226;2023-02-18T16:13:12;14.90;99.90
18426;DHT22;9340;48.756;9.226;2023-02-18T16:15:41;14.80;99.90
18426;DHT22;9340;48.756;9.226;2023-02-18T16:18:27;14.80;99.90
18426;DHT22;9340;48.756;9.226;2023-02-18T16:20:58;14.70;99.90